sensor_id;sensor_type;location;lat;lon;timestamp;temperature;humidity
63966;DHT22;50151;52.030;5.350;2023-09-18T09:14:14;20.00;99.90
63966;DHT22;50151;52.030;5.350;2023-09-18T09:16:59;20.10;99.90
63966;DHT22;50151;52.030;5.350;2023-09-18T09:19:32;20.30;99.90
63966;DHT22;50151;52.030;5.350;2023-09-18T09:21:59;20.40;99.90
63966;DHT22;50151;52.030;5.350;2023-09-18T09:27:04;20.50;99.90
63966;DHT22;50151;52.030;5.350;2023-09-18T09:29:31;20.60;99.90
63966;DHT22;50151;52.030;5.350;2023-09-18T09:32:17;20.80;99.90
63966;DHT22;50151;52.030;5.350;2023-09-18T09:34:45;20.90;99.90
63966;DHT22;50151;52.030;5.350;2023-09-18T09:37:13;21.00;99.90
63966;DHT22;50151;52.030;5.350;2023-09-18T09:39:52;21.00;99.90
63966;DHT22;50151;52.030;5.350;2023-09-18T09:42:20;21.00;99.90
63966;DHT22;50151;52.030;5.350;2023-09-18T09:45:02;20.90;99.90
63966;DHT22;50151;52.030;5.350;2023-09-18T09:47:34;20.70;99.90
63966;DHT22;50151;52.030;5.350;2023-09-18T09:50:09;20.70;99.90
63966;DHT22;50151;52.030;5.350;2023-09-18T09:52:44;20.70;99.90
63966;DHT22;50151;52.030;5.350;2023-09-18T09:57:49;20.50;99.90
63966;DHT22;50151;52.030;5.350;2023-09-18T10:00:16;20.60;99.90
63966;DHT22;50151;52.030;5.350;2023-09-18T10:03:14;20.50;99.90
63966;DHT22;50151;52.030;5.350;2023-09-18T10:05:44;20.60;99.90
63966;DHT22;50151;52.030;5.350;2023-09-18T10:08:23;20.70;99.90
63966;DHT22;50151;52.030;5.350;2023-09-18T10:10:55;20.60;99.90
63966;DHT22;50151;52.030;5.350;2023-09-18T10:13:31;20.50;99.90
63966;DHT22;50151;52.030;5.350;2023-09-18T10:15:59;20.60;99.90
63966;DHT22;50151;52.030;5.350;2023-09-18T10:18:52;20.60;99.90
63966;DHT22;50151;52.030;5.350;2023-09-18T10:21:32;20.50;99.90
63966;DHT22;50151;52.030;5.350;2023-09-18T10:24:17;20.70;99.90
63966;DHT22;50151;52.030;5.350;2023-09-18T10:26:57;20.50;99.90
63966;DHT22;50151;52.030;5.350;2023-09-18T10:29:25;20.70;99.90
63966;DHT22;50151;52.030;5.350;2023-09-18T10:31:53;20.70;99.90
63966;DHT22;50151;52.030;5.350;2023-09-18T10:34:23;20.60;99.90
63966;DHT22;50151;52.030;5.350;2023-09-18T10:36:52;20.60;99.90
63966;DHT22;50151;52.030;5.350;2023-09-18T10:39:20;20.70;99.90
63966;DHT22;50151;52.030;5.350;2023-09-18T10:41:54;20.60;99.90
63966;DHT22;50151;52.030;5.350;2023-09-18T10:44:25;20.60;99.90
63966;DHT22;50151;52.030;5.350;2023-09-18T10:46:52;20.70;99.90
63966;DHT22;50151;52.030;5.350;2023-09-18T10:49:20;20.60;99.90
63966;DHT22;50151;52.030;5.350;2023-09-18T10:51:47;20.70;99.90
63966;DHT22;50151;52.030;5.350;2023-09-18T10:54:21;20.90;99.90
63966;DHT22;50151;52.030;5.350;2023-09-18T10:56:49;20.90;99.90
63966;DHT22;50151;52.030;5.350;2023-09-18T10:59:16;21.00;99.90
63966;DHT22;50151;52.030;5.350;2023-09-18T11:01:46;21.10;99.90
63966;DHT22;50151;52.030;5.350;2023-09-18T11:04:19;21.40;99.90
63966;DHT22;50151;52.030;5.350;2023-09-18T11:09:27;21.20;99.90
63966;DHT22;50151;52.030;5.350;2023-09-18T11:12:03;21.30;99.90
63966;DHT22;50151;52.030;5.350;2023-09-18T11:17:31;21.50;99.90
63966;DHT22;50151;52.030;5.350;2023-09-18T11:20:15;21.70;99.90
63966;DHT22;50151;52.030;5.350;2023-09-18T11:25:30;21.80;99.90
63966;DHT22;50151;52.030;5.350;2023-09-18T11:28:16;21.80;99.90
63966;DHT22;50151;52.030;5.350;2023-09-18T11:30:55;21.80;99.90
63966;DHT22;50151;52.030;5.350;2023-09-18T11:33:39;21.90;99.90
63966;DHT22;50151;52.030;5.350;2023-09-18T11:41:25;21.70;99.90
63966;DHT22;50151;52.030;5.350;2023-09-18T11:46:47;21.60;99.90
63966;DHT22;50151;52.030;5.350;2023-09-18T11:49:19;21.70;99.90
63966;DHT22;50151;52.030;5.350;2023-09-18T11:51:50;21.60;99.90
63966;DHT22;50151;52.030;5.350;2023-09-18T11:54:18;21.50;99.90
63966;DHT22;50151;52.030;5.350;2023-09-18T11:56:45;21.60;99.90
63966;DHT22;50151;52.030;5.350;2023-09-18T11:59:12;21.70;99.90
63966;DHT22;50151;52.030;5.350;2023-09-18T12:01:39;21.80;99.90
63966;DHT22;50151;52.030;5.350;2023-09-18T12:04:06;21.70;99.90
63966;DHT22;50151;52.030;5.350;2023-09-18T12:06:39;21.70;99.90
63966;DHT22;50151;52.030;5.350;2023-09-18T12:09:07;21.40;99.90
63966;DHT22;50151;52.030;5.350;2023-09-18T12:11:34;21.50;99.90
63966;DHT22;50151;52.030;5.350;2023-09-18T12:14:04;21.50;99.90
63966;DHT22;50151;52.030;5.350;2023-09-18T12:16:38;21.30;99.90
63966;DHT22;50151;52.030;5.350;2023-09-18T12:19:05;21.50;99.90
63966;DHT22;50151;52.030;5.350;2023-09-18T12:21:33;21.50;99.90
63966;DHT22;50151;52.030;5.350;2023-09-18T12:24:06;21.50;99.90
63966;DHT22;50151;52.030;5.350;2023-09-18T12:26:33;21.40;99.90
63966;DHT22;50151;52.030;5.350;2023-09-18T12:29:00;22.20;99.90
63966;DHT22;50151;52.030;5.350;2023-09-18T12:31:27;22.50;99.90
63966;DHT22;50151;52.030;5.350;2023-09-18T12:33:56;22.70;99.90
63966;DHT22;50151;52.030;5.350;2023-09-18T12:36:22;22.40;99.90
63966;DHT22;50151;52.030;5.350;2023-09-18T12:38:59;22.90;99.90
63966;DHT22;50151;52.030;5.350;2023-09-18T12:41:29;22.80;99.90
63966;DHT22;50151;52.030;5.350;2023-09-18T12:43:59;22.90;99.90
63966;DHT22;50151;52.030;5.350;2023-09-18T12:46:26;23.50;99.90
63966;DHT22;50151;52.030;5.350;2023-09-18T12:48:53;23.80;99.90
63966;DHT22;50151;52.030;5.350;2023-09-18T12:51:29;23.80;99.90
63966;DHT22;50151;52.030;5.350;2023-09-18T12:54:01;24.10;99.90
63966;DHT22;50151;52.030;5.350;2023-09-18T12:56:33;24.30;99.90
63966;DHT22;50151;52.030;5.350;2023-09-18T12:59:06;24.40;99.90
63966;DHT22;50151;52.030;5.350;2023-09-18T13:01:46;24.30;99.90
63966;DHT22;50151;52.030;5.350;2023-09-18T13:04:13;24.80;99.90
63966;DHT22;50151;52.030;5.350;2023-09-18T13:06:40;24.40;99.90
63966;DHT22;50151;52.030;5.350;2023-09-18T13:09:20;24.50;99.90
63966;DHT22;50151;52.030;5.350;2023-09-18T13:11:56;24.50;99.90
63966;DHT22;50151;52.030;5.350;2023-09-18T13:14:24;24.70;99.90
63966;DHT22;50151;52.030;5.350;2023-09-18T13:16:51;24.50;99.90
63966;DHT22;50151;52.030;5.350;2023-09-18T13:19:18;24.70;99.90
63966;DHT22;50151;52.030;5.350;2023-09-18T13:21:50;24.80;99.90
63966;DHT22;50151;52.030;5.350;2023-09-18T13:26:53;25.40;99.90
63966;DHT22;50151;52.030;5.350;2023-09-18T13:29:23;25.10;99.90
63966;DHT22;50151;52.030;5.350;2023-09-18T13:31:51;24.80;99.90
63966;DHT22;50151;52.030;5.350;2023-09-18T13:34:18;25.10;99.90
63966;DHT22;50151;52.030;5.350;2023-09-18T13:36:45;24.50;99.90
63966;DHT22;50151;52.030;5.350;2023-09-18T13:39:13;24.80;99.90
63966;DHT22;50151;52.030;5.350;2023-09-18T13:41:41;25.20;99.90
63966;DHT22;50151;52.030;5.350;2023-09-18T13:44:08;25.70;99.90
63966;DHT22;50151;52.030;5.350;2023-09-18T13:46:37;25.50;99.90
63966;DHT22;50151;52.030;5.350;2023-09-18T13:49:04;25.40;99.90
63966;DHT22;50151;52.030;5.350;2023-09-18T13:51:32;25.30;99.90
63966;DHT22;50151;52.030;5.350;2023-09-18T13:53:59;25.30;99.90
63966;DHT22;50151;52.030;5.350;2023-09-18T13:56:26;24.40;99.90
63966;DHT22;50151;52.030;5.350;2023-09-18T13:58:55;24.90;99.90
63966;DHT22;50151;52.030;5.350;2023-09-18T14:01:25;25.40;99.90
63966;DHT22;50151;52.030;5.350;2023-09-18T14:03:54;25.90;99.90
63966;DHT22;50151;52.030;5.350;2023-09-18T14:06:21;26.20;99.90
63966;DHT22;50151;52.030;5.350;2023-09-18T14:08:48;26.10;99.90
63966;DHT22;50151;52.030;5.350;2023-09-18T14:11:15;25.90;99.90
63966;DHT22;50151;52.030;5.350;2023-09-18T14:13:42;25.60;99.90
63966;DHT22;50151;52.030;5.350;2023-09-18T14:16:09;25.40;99.90
63966;DHT22;50151;52.030;5.350;2023-09-18T14:18:37;25.30;99.90
63966;DHT22;50151;52.030;5.350;2023-09-18T14:21:05;25.00;99.90
63966;DHT22;50151;52.030;5.350;2023-09-18T14:23:33;25.20;99.90
63966;DHT22;50151;52.030;5.350;2023-09-18T14:26:01;25.50;99.90
63966;DHT22;50151;52.030;5.350;2023-09-18T14:28:28;25.10;99.90
63966;DHT22;50151;52.030;5.350;2023-09-18T14:30:54;24.70;99.90
63966;DHT22;50151;52.030;5.350;2023-09-18T14:33:21;24.30;99.90
63966;DHT22;50151;52.030;5.350;2023-09-18T14:35:49;24.50;99.90
63966;DHT22;50151;52.030;5.350;2023-09-18T14:38:16;24.20;99.90
63966;DHT22;50151;52.030;5.350;2023-09-18T14:40:42;24.10;99.90
63966;DHT22;50151;52.030;5.350;2023-09-18T14:43:09;23.90;99.90
63966;DHT22;50151;52.030;5.350;2023-09-18T14:45:36;23.90;99.90
63966;DHT22;50151;52.030;5.350;2023-09-18T14:48:04;23.90;99.90
63966;DHT22;50151;52.030;5.350;2023-09-18T14:50:31;23.70;99.90
63966;DHT22;50151;52.030;5.350;2023-09-18T14:52:58;23.50;99.90
63966;DHT22;50151;52.030;5.350;2023-09-18T14:55:25;23.30;99.90
63966;DHT22;50151;52.030;5.350;2023-09-18T14:57:52;23.30;99.90
63966;DHT22;50151;52.030;5.350;2023-09-18T15:00:21;23.30;99.90
63966;DHT22;50151;52.030;5.350;2023-09-18T15:02:47;23.10;99.90
63966;DHT22;50151;52.030;5.350;2023-09-18T15:05:14;22.80;99.90
63966;DHT22;50151;52.030;5.350;2023-09-18T15:07:44;21.70;99.90
63966;DHT22;50151;52.030;5.350;2023-09-18T15:10:10;20.60;99.90
63966;DHT22;50151;52.030;5.350;2023-09-18T15:12:37;20.20;99.90
63966;DHT22;50151;52.030;5.350;2023-09-18T15:15:04;19.80;99.90
63966;DHT22;50151;52.030;5.350;2023-09-18T15:17:31;19.50;99.90
63966;DHT22;50151;52.030;5.350;2023-09-18T15:20:00;19.30;99.90
63966;DHT22;50151;52.030;5.350;2023-09-18T15:22:27;19.10;99.90
63966;DHT22;50151;52.030;5.350;2023-09-18T15:24:53;19.30;99.90
63966;DHT22;50151;52.030;5.350;2023-09-18T15:27:24;18.80;99.90
63966;DHT22;50151;52.030;5.350;2023-09-18T15:29:51;18.90;99.90
63966;DHT22;50151;52.030;5.350;2023-09-18T15:32:18;18.80;99.90
63966;DHT22;50151;52.030;5.350;2023-09-18T15:34:46;18.90;99.90
63966;DHT22;50151;52.030;5.350;2023-09-18T15:37:14;18.70;99.90
63966;DHT22;50151;52.030;5.350;2023-09-18T15:39:43;18.50;99.90
63966;DHT22;50151;52.030;5.350;2023-09-18T15:42:10;18.10;99.90
63966;DHT22;50151;52.030;5.350;2023-09-18T15:44:36;18.30;99.90
63966;DHT22;50151;52.030;5.350;2023-09-18T15:47:04;18.20;99.90
63966;DHT22;50151;52.030;5.350;2023-09-18T15:49:31;18.10;99.90
63966;DHT22;50151;52.030;5.350;2023-09-18T15:51:58;17.90;99.90
63966;DHT22;50151;52.030;5.350;2023-09-18T15:54:25;18.00;99.90
63966;DHT22;50151;52.030;5.350;2023-09-18T15:56:52;18.10;99.90
63966;DHT22;50151;52.030;5.350;2023-09-18T15:59:19;18.10;99.90
63966;DHT22;50151;52.030;5.350;2023-09-18T16:01:45;18.20;99.90
63966;DHT22;50151;52.030;5.350;2023-09-18T16:04:13;18.40;99.90
63966;DHT22;50151;52.030;5.350;2023-09-18T16:06:40;18.50;99.90
63966;DHT22;50151;52.030;5.350;2023-09-18T16:09:07;18.50;99.90
63966;DHT22;50151;52.030;5.350;2023-09-18T16:11:36;18.60;99.90
63966;DHT22;50151;52.030;5.350;2023-09-18T16:14:03;18.80;99.90
63966;DHT22;50151;52.030;5.350;2023-09-18T16:16:30;18.80;99.90
63966;DHT22;50151;52.030;5.350;2023-09-18T16:18:57;18.80;99.90
63966;DHT22;50151;52.030;5.350;2023-09-18T16:21:24;18.80;99.90
63966;DHT22;50151;52.030;5.350;2023-09-18T16:23:50;18.80;99.90
63966;DHT22;50151;52.030;5.350;2023-09-18T16:26:17;18.80;99.90
63966;DHT22;50151;52.030;5.350;2023-09-18T16:28:44;18.80;99.90
63966;DHT22;50151;52.030;5.350;2023-09-18T16:31:11;18.90;99.90
63966;DHT22;50151;52.030;5.350;2023-09-18T16:33:38;19.00;99.90
63966;DHT22;50151;52.030;5.350;2023-09-18T16:36:07;19.00;99.90
63966;DHT22;50151;52.030;5.350;2023-09-18T16:38:34;19.10;99.90
63966;DHT22;50151;52.030;5.350;2023-09-18T16:41:08;19.10;99.90
63966;DHT22;50151;52.030;5.350;2023-09-18T16:43:35;19.10;99.90
63966;DHT22;50151;52.030;5.350;2023-09-18T16:46:05;19.20;99.90
63966;DHT22;50151;52.030;5.350;2023-09-18T16:48:32;19.10;99.90
63966;DHT22;50151;52.030;5.350;2023-09-18T16:51:02;19.10;99.90
63966;DHT22;50151;52.030;5.350;2023-09-18T16:53:29;19.10;99.90
63966;DHT22;50151;52.030;5.350;2023-09-18T16:55:56;19.20;99.90
63966;DHT22;50151;52.030;5.350;2023-09-18T16:58:23;19.10;99.90
63966;DHT22;50151;52.030;5.350;2023-09-18T17:00:49;19.10;99.90
63966;DHT22;50151;52.030;5.350;2023-09-18T17:03:16;19.20;99.90
63966;DHT22;50151;52.030;5.350;2023-09-18T17:05:43;19.10;99.90
63966;DHT22;50151;52.030;5.350;2023-09-18T17:08:10;19.10;99.90
63966;DHT22;50151;52.030;5.350;2023-09-18T17:10:37;19.10;99.90
63966;DHT22;50151;52.030;5.350;2023-09-18T17:13:04;19.10;99.90
63966;DHT22;50151;52.030;5.350;2023-09-18T17:15:31;19.00;99.90
63966;DHT22;50151;52.030;5.350;2023-09-18T17:17:58;19.00;99.90
63966;DHT22;50151;52.030;5.350;2023-09-18T17:20:28;19.10;99.90
63966;DHT22;50151;52.030;5.350;2023-09-18T17:22:58;19.00;99.90
63966;DHT22;50151;52.030;5.350;2023-09-18T17:25:25;19.00;99.90
63966;DHT22;50151;52.030;5.350;2023-09-18T17:27:52;19.00;99.90
63966;DHT22;50151;52.030;5.350;2023-09-18T17:30:19;19.00;99.90
63966;DHT22;50151;52.030;5.350;2023-09-18T17:32:45;19.00;99.90
63966;DHT22;50151;52.030;5.350;2023-09-18T17:35:13;19.10;99.90
63966;DHT22;50151;52.030;5.350;2023-09-18T17:37:40;19.00;99.90
63966;DHT22;50151;52.030;5.350;2023-09-18T17:40:07;19.10;99.90
63966;DHT22;50151;52.030;5.350;2023-09-18T17:42:34;19.10;99.90
63966;DHT22;50151;52.030;5.350;2023-09-18T17:45:01;19.00;99.90
63966;DHT22;50151;52.030;5.350;2023-09-18T17:47:28;19.00;99.90
63966;DHT22;50151;52.030;5.350;2023-09-18T17:49:55;19.00;99.90
63966;DHT22;50151;52.030;5.350;2023-09-18T17:52:22;19.00;99.90
63966;DHT22;50151;52.030;5.350;2023-09-18T17:54:51;19.10;99.90
63966;DHT22;50151;52.030;5.350;2023-09-18T17:57:17;19.00;99.90
63966;DHT22;50151;52.030;5.350;2023-09-18T17:59:44;19.00;99.90
63966;DHT22;50151;52.030;5.350;2023-09-18T18:02:11;19.00;99.90
63966;DHT22;50151;52.030;5.350;2023-09-18T18:04:38;19.00;99.90
63966;DHT22;50151;52.030;5.350;2023-09-18T18:07:05;19.00;99.90
63966;DHT22;50151;52.030;5.350;2023-09-18T18:09:32;19.00;99.90
63966;DHT22;50151;52.030;5.350;2023-09-18T18:11:58;18.90;99.90
63966;DHT22;50151;52.030;5.350;2023-09-18T18:14:26;18.90;99.90
63966;DHT22;50151;52.030;5.350;2023-09-18T18:16:52;18.90;99.90
63966;DHT22;50151;52.030;5.350;2023-09-18T18:19:20;19.00;99.90
63966;DHT22;50151;52.030;5.350;2023-09-18T18:21:47;19.00;99.90
63966;DHT22;50151;52.030;5.350;2023-09-18T18:24:15;19.00;99.90
63966;DHT22;50151;52.030;5.350;2023-09-18T18:26:41;19.00;99.90
63966;DHT22;50151;52.030;5.350;2023-09-18T18:29:08;19.00;99.90
63966;DHT22;50151;52.030;5.350;2023-09-18T18:31:35;18.90;99.90
63966;DHT22;50151;52.030;5.350;2023-09-18T18:34:01;19.00;99.90
63966;DHT22;50151;52.030;5.350;2023-09-18T18:36:30;18.90;99.90
63966;DHT22;50151;52.030;5.350;2023-09-18T18:38:58;18.90;99.90
63966;DHT22;50151;52.030;5.350;2023-09-18T18:41:26;18.90;99.90
63966;DHT22;50151;52.030;5.350;2023-09-18T18:43:53;18.80;99.90
63966;DHT22;50151;52.030;5.350;2023-09-18T18:46:19;18.90;99.90
63966;DHT22;50151;52.030;5.350;2023-09-18T18:48:46;18.90;99.90
63966;DHT22;50151;52.030;5.350;2023-09-18T18:51:15;18.90;99.90
63966;DHT22;50151;52.030;5.350;2023-09-18T18:53:47;18.80;99.90
63966;DHT22;50151;52.030;5.350;2023-09-18T18:56:17;18.80;99.90
63966;DHT22;50151;52.030;5.350;2023-09-18T18:58:47;18.80;99.90
63966;DHT22;50151;52.030;5.350;2023-09-18T19:01:17;18.80;99.90
63966;DHT22;50151;52.030;5.350;2023-09-18T19:03:47;18.80;99.90
63966;DHT22;50151;52.030;5.350;2023-09-18T19:06:14;18.80;99.90
63966;DHT22;50151;52.030;5.350;2023-09-18T19:08:41;18.70;99.90
63966;DHT22;50151;52.030;5.350;2023-09-18T19:11:08;18.70;99.90
63966;DHT22;50151;52.030;5.350;2023-09-18T19:13:36;18.70;99.90
63966;DHT22;50151;52.030;5.350;2023-09-18T19:16:07;18.70;99.90
63966;DHT22;50151;52.030;5.350;2023-09-18T19:18:34;18.70;99.90
63966;DHT22;50151;52.030;5.350;2023-09-18T19:21:02;18.70;99.90
63966;DHT22;50151;52.030;5.350;2023-09-18T19:23:33;18.60;99.90
63966;DHT22;50151;52.030;5.350;2023-09-18T19:26:05;18.60;99.90
63966;DHT22;50151;52.030;5.350;2023-09-18T19:28:34;18.60;99.90
63966;DHT22;50151;52.030;5.350;2023-09-18T19:31:01;18.50;99.90
63966;DHT22;50151;52.030;5.350;2023-09-18T19:33:29;18.50;99.90
63966;DHT22;50151;52.030;5.350;2023-09-18T19:35:59;18.50;99.90
63966;DHT22;50151;52.030;5.350;2023-09-18T19:38:26;18.40;99.90
63966;DHT22;50151;52.030;5.350;2023-09-18T19:40:53;18.40;99.90
63966;DHT22;50151;52.030;5.350;2023-09-18T19:43:20;18.40;99.90
63966;DHT22;50151;52.030;5.350;2023-09-18T19:45:48;18.40;99.90
63966;DHT22;50151;52.030;5.350;2023-09-18T19:48:16;18.30;99.90
63966;DHT22;50151;52.030;5.350;2023-09-18T19:50:43;18.30;99.90
63966;DHT22;50151;52.030;5.350;2023-09-18T19:53:10;18.20;99.90
63966;DHT22;50151;52.030;5.350;2023-09-18T19:55:36;18.30;99.90
63966;DHT22;50151;52.030;5.350;2023-09-18T19:58:03;18.30;99.90
63966;DHT22;50151;52.030;5.350;2023-09-18T20:00:33;18.30;99.90
63966;DHT22;50151;52.030;5.350;2023-09-18T20:03:00;18.30;99.90
63966;DHT22;50151;52.030;5.350;2023-09-18T20:05:27;18.30;99.90
63966;DHT22;50151;52.030;5.350;2023-09-18T20:07:54;18.30;99.90
63966;DHT22;50151;52.030;5.350;2023-09-18T20:10:21;18.20;99.90
63966;DHT22;50151;52.030;5.350;2023-09-18T20:12:50;18.30;99.90
63966;DHT22;50151;52.030;5.350;2023-09-18T20:15:18;18.30;99.90
63966;DHT22;50151;52.030;5.350;2023-09-18T20:17:46;18.20;99.90
63966;DHT22;50151;52.030;5.350;2023-09-18T20:20:17;18.20;99.90
63966;DHT22;50151;52.030;5.350;2023-09-18T20:22:44;18.20;99.90
63966;DHT22;50151;52.030;5.350;2023-09-18T20:25:11;18.10;99.90
63966;DHT22;50151;52.030;5.350;2023-09-18T20:27:40;18.10;99.90
63966;DHT22;50151;52.030;5.350;2023-09-18T20:30:11;18.10;99.90
63966;DHT22;50151;52.030;5.350;2023-09-18T20:32:41;18.00;99.90
63966;DHT22;50151;52.030;5.350;2023-09-18T20:35:09;18.00;99.90
63966;DHT22;50151;52.030;5.350;2023-09-18T20:37:37;17.90;99.90
63966;DHT22;50151;52.030;5.350;2023-09-18T20:40:05;17.90;99.90
63966;DHT22;50151;52.030;5.350;2023-09-18T20:42:33;17.80;99.90
63966;DHT22;50151;52.030;5.350;2023-09-18T20:45:00;17.90;99.90
63966;DHT22;50151;52.030;5.350;2023-09-18T20:47:27;17.90;99.90
63966;DHT22;50151;52.030;5.350;2023-09-18T20:49:55;17.90;99.90
63966;DHT22;50151;52.030;5.350;2023-09-18T20:52:22;17.70;99.90
63966;DHT22;50151;52.030;5.350;2023-09-18T20:54:50;17.80;99.90
63966;DHT22;50151;52.030;5.350;2023-09-18T20:57:17;17.80;99.90
63966;DHT22;50151;52.030;5.350;2023-09-18T20:59:44;17.70;99.90
63966;DHT22;50151;52.030;5.350;2023-09-18T21:02:11;17.70;99.90
63966;DHT22;50151;52.030;5.350;2023-09-18T21:04:40;17.60;99.90
63966;DHT22;50151;52.030;5.350;2023-09-18T21:07:06;17.50;99.90
63966;DHT22;50151;52.030;5.350;2023-09-18T21:09:33;17.50;99.90
63966;DHT22;50151;52.030;5.350;2023-09-18T21:12:00;17.40;99.90
63966;DHT22;50151;52.030;5.350;2023-09-18T21:14:30;17.40;99.90
63966;DHT22;50151;52.030;5.350;2023-09-18T21:16:57;17.40;99.90
63966;DHT22;50151;52.030;5.350;2023-09-18T21:19:24;17.40;99.90
63966;DHT22;50151;52.030;5.350;2023-09-18T21:21:51;17.40;99.90
63966;DHT22;50151;52.030;5.350;2023-09-18T21:24:17;17.30;99.90
63966;DHT22;50151;52.030;5.350;2023-09-18T21:26:44;17.30;99.90
63966;DHT22;50151;52.030;5.350;2023-09-18T21:29:12;17.40;99.90
63966;DHT22;50151;52.030;5.350;2023-09-18T21:31:39;17.30;99.90
63966;DHT22;50151;52.030;5.350;2023-09-18T21:34:06;17.30;99.90
63966;DHT22;50151;52.030;5.350;2023-09-18T21:36:33;17.20;99.90
63966;DHT22;50151;52.030;5.350;2023-09-18T21:39:00;17.20;99.90
63966;DHT22;50151;52.030;5.350;2023-09-18T21:41:27;17.20;99.90
63966;DHT22;50151;52.030;5.350;2023-09-18T21:43:54;17.10;99.90
63966;DHT22;50151;52.030;5.350;2023-09-18T21:46:21;17.00;99.90
63966;DHT22;50151;52.030;5.350;2023-09-18T21:48:48;17.00;99.90
63966;DHT22;50151;52.030;5.350;2023-09-18T21:51:15;17.00;99.90
63966;DHT22;50151;52.030;5.350;2023-09-18T21:53:46;16.90;99.90
63966;DHT22;50151;52.030;5.350;2023-09-18T21:56:12;16.90;99.90
63966;DHT22;50151;52.030;5.350;2023-09-18T21:58:39;16.90;99.90
63966;DHT22;50151;52.030;5.350;2023-09-18T22:01:06;17.00;99.90
63966;DHT22;50151;52.030;5.350;2023-09-18T22:03:36;16.90;99.90
